Saturday, February 24, 2018, 10:39 PM EST
Back to Local

KEWR, Newark International Airport

Location: Elizabeth, NJ, United States Lat: 40.683
Local Time: 10:39 PM EST ( 3:39 GMT) Lon: -74.167
Time Zone: US/Eastern Elev: 16 ft

Show me the last for .
Show Decoded

2018-02-24 21:55 METAR KEWR 250255Z 02009KT 2SM -RA BR BKN007 OVC013 07/06 A3022 RMK AO2 P0000
                 T00720061 =
2018-02-24 21:51 METAR KEWR 250251Z 02008KT 3SM -RA BR BKN007 OVC013 07/06 A3021 RMK AO2 RAB03
                 SLP231 P0001 60001 T00720061 53010 =
2018-02-24 21:30 METAR KEWR 250230Z 02007KT 4SM -RA BR BKN007 BKN013 OVC035 08/06 A3021 RMK AO2
                 RAB03 P0000 T00780061 =
2018-02-24 21:25 METAR KEWR 250225Z 01010KT 5SM -RA BR SCT009 BKN029 OVC035 08/06 A3021 RMK AO2
                 RAB03 P0000 T00780061 =
2018-02-24 21:23 METAR KEWR 250223Z 01010KT 5SM -RA BR FEW009 BKN029 OVC035 08/06 A3021 RMK AO2
                 RAB03 P0000 T00780061 =
2018-02-24 21:04 METAR KEWR 250204Z 01013KT 7SM -RA BKN029 BKN035 OVC065 08/06 A3020 RMK AO2
                 RAB03 P0000 T00780061 =
2018-02-24 20:51 METAR KEWR 250151Z 01008KT 10SM BKN032 BKN047 OVC065 08/06 A3020 RMK AO2 RAE17
                 SLP225 P0000 T00830061 =
2018-02-24 20:42 METAR KEWR 250142Z 36007KT 10SM BKN032 OVC065 08/06 A3020 RMK AO2 RAE17 P0000
                 T00830061 =
2018-02-24 19:51 METAR KEWR 250051Z 00000KT 8SM -RA OVC065 08/06 A3019 RMK AO2 RAB33 SLP222 P0000
                 T00830056 =
2018-02-24 18:51 METAR KEWR 242351Z 36005KT 10SM OVC060 08/06 A3018 RMK AO2 SLP220 60004
                 T00830056 10133 20078 51005 =
2018-02-24 17:51 METAR KEWR 242251Z 01008KT 10SM FEW020 OVC060 08/04 A3017 RMK AO2 RAE39 SLP216
                 P0000 T00830044 =
2018-02-24 16:51 METAR KEWR 242151Z 32009KT 10SM -RA FEW020 OVC055 09/06 A3019 RMK AO2 SLP222
                 P0000 T00890056 =
2018-02-24 15:51 METAR KEWR 242051Z 01010KT 5SM -RA FEW020 OVC055 09/06 A3017 RMK AO2 SLP215
                 P0004 60004 T00940061 53010 =
2018-02-24 14:51 METAR KEWR 241951Z 02010KT 10SM -RA SCT049 OVC070 11/04 A3014 RMK AO2 RAB42
                 SLP205 P0000 T01110044 =
2018-02-24 13:51 METAR KEWR 241851Z 31008KT 10SM SCT070 BKN095 OVC150 12/04 A3015 RMK AO2 RAE42
                 SLP210 P0000 T01220039 =
2018-02-24 12:51 METAR KEWR 241751Z 34007KT 10SM -RA BKN075 OVC095 12/06 A3014 RMK AO2 RAB02
                 SLP206 P0000 60000 T01220056 10133 20061 58007 =
2018-02-24 11:51 METAR KEWR 241651Z 30007KT 10SM OVC090 13/04 A3018 RMK AO2 SLP219 T01280044 $ =
2018-02-24 10:51 METAR KEWR 241551Z 33005KT 10SM FEW026 BKN095 BKN230 12/05 A3016 RMK AO2 SLP211
                 T01170050 $ =
2018-02-24 09:51 METAR KEWR 241451Z 32004KT 10SM FEW016 SCT100 BKN220 11/06 A3016 RMK AO2 SLP213
                 T01060061 58006 $ =
2018-02-24 08:51 METAR KEWR 241351Z 23005KT 7SM FEW015 BKN220 09/07 A3017 RMK AO2 SLP217
                 T00890072 $ =
2018-02-24 07:51 METAR KEWR 241251Z 25005KT 7SM SCT016 SCT190 BKN240 08/06 A3017 RMK AO2 SLP217
                 T00780061 $ =
2018-02-24 07:47 METAR KEWR 241247Z 27005KT 7SM SCT016 SCT190 BKN240 07/06 A3018 RMK AO2 $ =
2018-02-24 06:51 METAR KEWR 241151Z 25006KT 7SM SCT009 BKN016 BKN240 07/06 A3018 RMK AO2 SLP219
                 70005 T00670056 10067 20050 51013 =
2018-02-24 05:51 METAR KEWR 241051Z 29005KT 7SM BKN009 BKN190 06/05 A3017 RMK AO2 SLP216
                 T00560050 =
2018-02-24 04:51 METAR KEWR 240951Z 22006KT 7SM FEW010 BKN190 06/05 A3015 RMK AO2 SLP210
                 T00560050 =
2018-02-24 04:43 METAR KEWR 240943Z 22006KT 7SM FEW008 SCT011 BKN190 06/05 A3015 RMK AO2
                 T00560050 =
2018-02-24 03:51 METAR KEWR 240851Z 24005KT 7SM OVC008 06/05 A3014 RMK AO2 SLP206 T00610050 58014
                 =
2018-02-24 02:51 METAR KEWR 240751Z 25007KT 6SM BR OVC008 06/05 A3017 RMK AO2 SLP214 T00610050 =
2018-02-24 01:51 METAR KEWR 240651Z 25008KT 6SM BR BKN008 OVC055 06/05 A3017 RMK AO2 SLP216
                 T00610050 =
2018-02-24 00:51 METAR KEWR 240551Z 25009KT 5SM BR BKN007 OVC055 06/05 A3018 RMK AO2 SLP220 60000
                 T00560050 10056 20039 56019 =
2018-02-23 23:51 METAR KEWR 240451Z 24009KT 5SM BR OVC005 05/04 A3018 RMK AO2 SLP221 T00500044
                 400500028 =
2018-02-23 22:51 METAR KEWR 240351Z 23009KT 5SM BR BKN006 OVC070 05/04 A3020 RMK AO2 SLP227
                 T00500039 =

Support USWX by starting your Amazon purchase here.